sensor_id;sensor_type;location;lat;lon;timestamp;temperature;humidity
67186;HTU21D;54116;53.518;49.398;2023-04-15T00:02:17;-9.56;118.99
67186;HTU21D;54116;53.518;49.398;2023-04-15T00:04:45;-9.70;118.99
67186;HTU21D;54116;53.518;49.398;2023-04-15T00:07:11;-9.75;118.99
67186;HTU21D;54116;53.518;49.398;2023-04-15T00:09:38;-9.68;118.99
67186;HTU21D;54116;53.518;49.398;2023-04-15T00:12:04;-9.83;118.99
67186;HTU21D;54116;53.518;49.398;2023-04-15T00:14:31;-9.68;118.99
67186;HTU21D;54116;53.518;49.398;2023-04-15T00:16:57;-9.62;118.99
67186;HTU21D;54116;53.518;49.398;2023-04-15T00:19:23;-9.91;118.99
67186;HTU21D;54116;53.518;49.398;2023-04-15T00:21:50;-9.87;118.99
67186;HTU21D;54116;53.518;49.398;2023-04-15T00:24:16;-9.77;118.99
67186;HTU21D;54116;53.518;49.398;2023-04-15T00:26:42;-9.89;118.99
67186;HTU21D;54116;53.518;49.398;2023-04-15T00:29:09;-9.83;118.99
67186;HTU21D;54116;53.518;49.398;2023-04-15T00:31:35;-9.78;118.99
67186;HTU21D;54116;53.518;49.398;2023-04-15T00:34:01;-9.84;118.99
67186;HTU21D;54116;53.518;49.398;2023-04-15T00:36:28;-10.19;118.99
67186;HTU21D;54116;53.518;49.398;2023-04-15T00:38:55;-9.75;118.99
67186;HTU21D;54116;53.518;49.398;2023-04-15T00:41:21;-9.79;118.99
67186;HTU21D;54116;53.518;49.398;2023-04-15T00:43:48;-9.91;118.99
67186;HTU21D;54116;53.518;49.398;2023-04-15T00:46:15;-10.17;118.99
67186;HTU21D;54116;53.518;49.398;2023-04-15T00:48:42;-10.07;118.99
67186;HTU21D;54116;53.518;49.398;2023-04-15T00:51:09;-10.11;118.99
67186;HTU21D;54116;53.518;49.398;2023-04-15T00:53:35;-10.31;118.99
67186;HTU21D;54116;53.518;49.398;2023-04-15T00:56:01;-10.02;118.99
67186;HTU21D;54116;53.518;49.398;2023-04-15T00:58:28;-10.18;118.99
67186;HTU21D;54116;53.518;49.398;2023-04-15T01:00:55;-10.01;118.99
67186;HTU21D;54116;53.518;49.398;2023-04-15T01:03:22;-10.23;118.99
67186;HTU21D;54116;53.518;49.398;2023-04-15T01:05:49;-10.19;118.99
67186;HTU21D;54116;53.518;49.398;2023-04-15T01:08:15;-10.04;118.99
67186;HTU21D;54116;53.518;49.398;2023-04-15T01:10:42;-10.23;118.99
67186;HTU21D;54116;53.518;49.398;2023-04-15T01:13:08;-10.16;118.99
67186;HTU21D;54116;53.518;49.398;2023-04-15T01:15:35;-10.20;118.99
67186;HTU21D;54116;53.518;49.398;2023-04-15T01:18:02;-9.83;118.99
67186;HTU21D;54116;53.518;49.398;2023-04-15T01:20:28;-10.36;118.99
67186;HTU21D;54116;53.518;49.398;2023-04-15T01:22:55;-10.43;118.99
67186;HTU21D;54116;53.518;49.398;2023-04-15T01:25:33;-10.17;118.99
67186;HTU21D;54116;53.518;49.398;2023-04-15T01:28:00;-10.59;118.99
67186;HTU21D;54116;53.518;49.398;2023-04-15T01:30:26;-10.76;118.99
67186;HTU21D;54116;53.518;49.398;2023-04-15T01:32:52;-10.96;118.99
67186;HTU21D;54116;53.518;49.398;2023-04-15T01:35:19;-10.56;118.99
67186;HTU21D;54116;53.518;49.398;2023-04-15T01:37:46;-10.82;118.99
67186;HTU21D;54116;53.518;49.398;2023-04-15T01:40:13;-10.74;118.99
67186;HTU21D;54116;53.518;49.398;2023-04-15T01:42:40;-10.34;118.99
67186;HTU21D;54116;53.518;49.398;2023-04-15T01:45:07;-10.85;118.99
67186;HTU21D;54116;53.518;49.398;2023-04-15T01:47:34;-10.45;118.99
67186;HTU21D;54116;53.518;49.398;2023-04-15T01:50:00;-10.95;118.99
67186;HTU21D;54116;53.518;49.398;2023-04-15T01:52:26;-10.53;118.99
67186;HTU21D;54116;53.518;49.398;2023-04-15T01:54:53;-10.66;118.99
67186;HTU21D;54116;53.518;49.398;2023-04-15T01:57:19;-10.85;118.99
67186;HTU21D;54116;53.518;49.398;2023-04-15T01:59:45;-10.43;118.99
67186;HTU21D;54116;53.518;49.398;2023-04-15T02:02:12;-10.73;118.99
67186;HTU21D;54116;53.518;49.398;2023-04-15T02:04:38;-10.66;118.99
67186;HTU21D;54116;53.518;49.398;2023-04-15T02:07:05;-10.50;118.99
67186;HTU21D;54116;53.518;49.398;2023-04-15T02:09:32;-10.32;118.99
67186;HTU21D;54116;53.518;49.398;2023-04-15T02:11:58;-10.42;118.99
67186;HTU21D;54116;53.518;49.398;2023-04-15T02:14:25;-10.30;118.99
67186;HTU21D;54116;53.518;49.398;2023-04-15T02:16:52;-10.49;118.99
67186;HTU21D;54116;53.518;49.398;2023-04-15T02:19:18;-10.81;118.99
67186;HTU21D;54116;53.518;49.398;2023-04-15T02:21:44;-10.51;118.99
67186;HTU21D;54116;53.518;49.398;2023-04-15T02:24:10;-10.38;118.99
67186;HTU21D;54116;53.518;49.398;2023-04-15T02:26:37;-10.58;118.99
67186;HTU21D;54116;53.518;49.398;2023-04-15T02:29:04;-10.40;118.99
67186;HTU21D;54116;53.518;49.398;2023-04-15T02:31:30;-10.44;118.99
67186;HTU21D;54116;53.518;49.398;2023-04-15T02:34:01;-10.62;118.99
67186;HTU21D;54116;53.518;49.398;2023-04-15T02:36:30;-10.41;118.99
67186;HTU21D;54116;53.518;49.398;2023-04-15T02:38:56;-10.42;118.99
67186;HTU21D;54116;53.518;49.398;2023-04-15T02:41:23;-10.61;118.99
67186;HTU21D;54116;53.518;49.398;2023-04-15T02:43:52;-10.10;118.99
67186;HTU21D;54116;53.518;49.398;2023-04-15T02:46:19;-9.08;118.99
67186;HTU21D;54116;53.518;49.398;2023-04-15T02:48:46;-8.28;118.99
67186;HTU21D;54116;53.518;49.398;2023-04-15T02:51:17;-8.45;118.99
67186;HTU21D;54116;53.518;49.398;2023-04-15T02:53:45;-8.37;118.99
67186;HTU21D;54116;53.518;49.398;2023-04-15T02:56:12;-8.87;118.99
67186;HTU21D;54116;53.518;49.398;2023-04-15T02:58:40;-9.31;118.99
67186;HTU21D;54116;53.518;49.398;2023-04-15T03:01:07;-9.12;118.99
67186;HTU21D;54116;53.518;49.398;2023-04-15T03:03:36;-9.07;118.99
67186;HTU21D;54116;53.518;49.398;2023-04-15T03:06:02;-8.88;118.99
67186;HTU21D;54116;53.518;49.398;2023-04-15T03:08:29;-8.36;118.99
67186;HTU21D;54116;53.518;49.398;2023-04-15T03:10:57;-8.54;118.99
67186;HTU21D;54116;53.518;49.398;2023-04-15T03:13:25;-8.24;118.99
67186;HTU21D;54116;53.518;49.398;2023-04-15T03:15:51;-7.98;118.99
67186;HTU21D;54116;53.518;49.398;2023-04-15T03:18:18;-7.79;118.99
67186;HTU21D;54116;53.518;49.398;2023-04-15T03:20:45;-6.73;118.99
67186;HTU21D;54116;53.518;49.398;2023-04-15T03:23:11;-6.59;118.99
67186;HTU21D;54116;53.518;49.398;2023-04-15T03:25:37;-7.27;118.99
67186;HTU21D;54116;53.518;49.398;2023-04-15T03:28:04;-7.71;118.99
67186;HTU21D;54116;53.518;49.398;2023-04-15T03:30:31;-8.20;118.99
67186;HTU21D;54116;53.518;49.398;2023-04-15T03:32:57;-8.25;118.99
67186;HTU21D;54116;53.518;49.398;2023-04-15T03:35:24;-8.30;118.99
67186;HTU21D;54116;53.518;49.398;2023-04-15T03:37:50;-7.47;118.99
67186;HTU21D;54116;53.518;49.398;2023-04-15T03:40:16;-7.55;118.99
67186;HTU21D;54116;53.518;49.398;2023-04-15T03:42:43;-7.51;118.99
67186;HTU21D;54116;53.518;49.398;2023-04-15T03:45:09;-7.56;118.99
67186;HTU21D;54116;53.518;49.398;2023-04-15T03:47:36;-7.80;118.99
67186;HTU21D;54116;53.518;49.398;2023-04-15T03:50:02;-8.08;118.99
67186;HTU21D;54116;53.518;49.398;2023-04-15T03:52:29;-8.05;118.99
67186;HTU21D;54116;53.518;49.398;2023-04-15T03:54:55;-8.23;118.99
67186;HTU21D;54116;53.518;49.398;2023-04-15T03:57:21;-8.19;118.99
67186;HTU21D;54116;53.518;49.398;2023-04-15T03:59:48;-8.51;118.99
67186;HTU21D;54116;53.518;49.398;2023-04-15T04:02:14;-7.27;118.99
67186;HTU21D;54116;53.518;49.398;2023-04-15T04:04:40;-6.96;118.99
67186;HTU21D;54116;53.518;49.398;2023-04-15T04:07:07;-7.63;118.99
67186;HTU21D;54116;53.518;49.398;2023-04-15T04:09:33;-7.48;118.99
67186;HTU21D;54116;53.518;49.398;2023-04-15T04:11:59;-7.60;118.99
67186;HTU21D;54116;53.518;49.398;2023-04-15T04:14:26;-6.04;118.99
67186;HTU21D;54116;53.518;49.398;2023-04-15T04:16:54;-4.56;118.99
67186;HTU21D;54116;53.518;49.398;2023-04-15T04:19:22;-3.58;118.99
67186;HTU21D;54116;53.518;49.398;2023-04-15T04:21:48;-2.44;118.99
67186;HTU21D;54116;53.518;49.398;2023-04-15T04:24:15;-3.10;118.99
67186;HTU21D;54116;53.518;49.398;2023-04-15T04:26:41;-2.74;118.99
67186;HTU21D;54116;53.518;49.398;2023-04-15T04:29:08;-2.45;118.99
67186;HTU21D;54116;53.518;49.398;2023-04-15T04:31:34;-1.80;118.99
67186;HTU21D;54116;53.518;49.398;2023-04-15T04:34:01;-2.19;118.99
67186;HTU21D;54116;53.518;49.398;2023-04-15T04:36:27;-1.43;118.99
67186;HTU21D;54116;53.518;49.398;2023-04-15T04:38:54;-2.04;118.99
67186;HTU21D;54116;53.518;49.398;2023-04-15T04:41:20;-2.08;118.99
67186;HTU21D;54116;53.518;49.398;2023-04-15T04:43:47;-2.49;118.99
67186;HTU21D;54116;53.518;49.398;2023-04-15T04:46:13;-2.44;118.99
67186;HTU21D;54116;53.518;49.398;2023-04-15T04:48:39;-2.63;118.99
67186;HTU21D;54116;53.518;49.398;2023-04-15T04:51:06;-2.94;118.99
67186;HTU21D;54116;53.518;49.398;2023-04-15T04:53:33;-3.42;118.99
67186;HTU21D;54116;53.518;49.398;2023-04-15T04:55:59;-1.76;118.99
67186;HTU21D;54116;53.518;49.398;2023-04-15T04:58:25;-2.00;118.99
67186;HTU21D;54116;53.518;49.398;2023-04-15T05:00:52;-1.76;118.99
67186;HTU21D;54116;53.518;49.398;2023-04-15T05:03:18;-2.41;118.99
67186;HTU21D;54116;53.518;49.398;2023-04-15T05:05:44;-1.93;118.99
67186;HTU21D;54116;53.518;49.398;2023-04-15T05:08:11;-1.80;118.99
67186;HTU21D;54116;53.518;49.398;2023-04-15T05:10:37;-3.53;118.99
67186;HTU21D;54116;53.518;49.398;2023-04-15T05:13:05;-2.31;118.99
67186;HTU21D;54116;53.518;49.398;2023-04-15T05:15:31;-2.15;118.99
67186;HTU21D;54116;53.518;49.398;2023-04-15T05:17:59;-1.98;118.99
67186;HTU21D;54116;53.518;49.398;2023-04-15T05:20:26;-2.79;118.99
67186;HTU21D;54116;53.518;49.398;2023-04-15T05:22:52;-2.42;118.99
67186;HTU21D;54116;53.518;49.398;2023-04-15T05:25:18;-2.57;118.99
67186;HTU21D;54116;53.518;49.398;2023-04-15T05:27:45;-4.93;118.99
67186;HTU21D;54116;53.518;49.398;2023-04-15T05:30:11;-4.38;118.99
67186;HTU21D;54116;53.518;49.398;2023-04-15T05:32:38;-3.20;118.99
67186;HTU21D;54116;53.518;49.398;2023-04-15T05:35:04;-2.80;118.99
67186;HTU21D;54116;53.518;49.398;2023-04-15T05:37:31;-2.51;118.99
67186;HTU21D;54116;53.518;49.398;2023-04-15T05:39:58;-2.77;118.99
67186;HTU21D;54116;53.518;49.398;2023-04-15T05:42:24;-2.54;118.99
67186;HTU21D;54116;53.518;49.398;2023-04-15T05:44:50;-2.76;118.99
67186;HTU21D;54116;53.518;49.398;2023-04-15T05:47:17;-2.17;118.99
67186;HTU21D;54116;53.518;49.398;2023-04-15T05:49:43;-2.35;118.99
67186;HTU21D;54116;53.518;49.398;2023-04-15T05:52:10;-2.81;118.99
67186;HTU21D;54116;53.518;49.398;2023-04-15T05:54:36;-2.51;118.99
67186;HTU21D;54116;53.518;49.398;2023-04-15T05:57:02;-2.54;118.99
67186;HTU21D;54116;53.518;49.398;2023-04-15T05:59:29;-2.87;118.99
67186;HTU21D;54116;53.518;49.398;2023-04-15T06:01:56;-2.44;118.99
67186;HTU21D;54116;53.518;49.398;2023-04-15T06:04:22;-3.00;118.99
67186;HTU21D;54116;53.518;49.398;2023-04-15T06:06:49;-2.48;118.99
67186;HTU21D;54116;53.518;49.398;2023-04-15T06:09:15;-2.04;118.99
67186;HTU21D;54116;53.518;49.398;2023-04-15T06:11:42;-2.96;118.99
67186;HTU21D;54116;53.518;49.398;2023-04-15T06:14:08;-3.28;118.99
67186;HTU21D;54116;53.518;49.398;2023-04-15T06:16:35;-3.24;118.99
67186;HTU21D;54116;53.518;49.398;2023-04-15T06:19:02;-2.80;118.99
67186;HTU21D;54116;53.518;49.398;2023-04-15T06:21:28;-3.08;118.99
67186;HTU21D;54116;53.518;49.398;2023-04-15T06:23:58;-3.34;118.99
67186;HTU21D;54116;53.518;49.398;2023-04-15T06:26:24;-3.39;118.99
67186;HTU21D;54116;53.518;49.398;2023-04-15T06:28:51;-3.18;118.99
67186;HTU21D;54116;53.518;49.398;2023-04-15T06:31:17;-3.40;118.99
67186;HTU21D;54116;53.518;49.398;2023-04-15T06:33:44;-3.36;118.99
67186;HTU21D;54116;53.518;49.398;2023-04-15T06:36:10;-3.37;118.99
67186;HTU21D;54116;53.518;49.398;2023-04-15T06:38:36;-3.74;118.99
67186;HTU21D;54116;53.518;49.398;2023-04-15T06:41:03;-3.41;118.99
67186;HTU21D;54116;53.518;49.398;2023-04-15T06:43:30;-3.58;118.99
67186;HTU21D;54116;53.518;49.398;2023-04-15T06:45:56;-3.46;118.99
67186;HTU21D;54116;53.518;49.398;2023-04-15T06:48:23;-4.28;118.99
67186;HTU21D;54116;53.518;49.398;2023-04-15T06:50:49;-4.40;118.99
67186;HTU21D;54116;53.518;49.398;2023-04-15T06:53:16;-4.40;118.99
67186;HTU21D;54116;53.518;49.398;2023-04-15T06:55:42;-4.51;118.99
67186;HTU21D;54116;53.518;49.398;2023-04-15T06:58:09;-4.53;118.99
67186;HTU21D;54116;53.518;49.398;2023-04-15T07:00:35;-4.50;118.99
67186;HTU21D;54116;53.518;49.398;2023-04-15T07:03:04;-4.53;118.99
67186;HTU21D;54116;53.518;49.398;2023-04-15T07:05:30;-4.48;118.99
67186;HTU21D;54116;53.518;49.398;2023-04-15T07:07:57;-4.04;118.99
67186;HTU21D;54116;53.518;49.398;2023-04-15T07:10:23;-3.84;118.99
67186;HTU21D;54116;53.518;49.398;2023-04-15T07:12:50;-3.97;118.99
67186;HTU21D;54116;53.518;49.398;2023-04-15T07:15:16;-4.16;118.99
67186;HTU21D;54116;53.518;49.398;2023-04-15T07:17:42;-3.89;118.99
67186;HTU21D;54116;53.518;49.398;2023-04-15T07:20:09;-3.70;118.99
67186;HTU21D;54116;53.518;49.398;2023-04-15T07:22:36;-3.47;118.99
67186;HTU21D;54116;53.518;49.398;2023-04-15T07:25:02;-3.91;118.99
67186;HTU21D;54116;53.518;49.398;2023-04-15T07:27:28;-3.99;118.99
67186;HTU21D;54116;53.518;49.398;2023-04-15T07:29:56;-3.62;118.99
67186;HTU21D;54116;53.518;49.398;2023-04-15T07:32:22;-3.47;118.99
67186;HTU21D;54116;53.518;49.398;2023-04-15T07:34:48;-3.46;118.99
67186;HTU21D;54116;53.518;49.398;2023-04-15T07:37:14;-3.24;118.99
67186;HTU21D;54116;53.518;49.398;2023-04-15T07:39:41;-3.45;118.99
67186;HTU21D;54116;53.518;49.398;2023-04-15T07:42:07;-3.62;118.99
67186;HTU21D;54116;53.518;49.398;2023-04-15T07:44:34;-3.31;118.99
67186;HTU21D;54116;53.518;49.398;2023-04-15T07:47:01;-3.21;118.99
67186;HTU21D;54116;53.518;49.398;2023-04-15T07:49:28;-3.17;118.99
67186;HTU21D;54116;53.518;49.398;2023-04-15T07:51:54;-3.05;118.99
67186;HTU21D;54116;53.518;49.398;2023-04-15T07:54:22;-3.17;118.99
67186;HTU21D;54116;53.518;49.398;2023-04-15T07:56:49;-2.87;118.99
67186;HTU21D;54116;53.518;49.398;2023-04-15T07:59:16;-2.95;118.99
67186;HTU21D;54116;53.518;49.398;2023-04-15T08:01:43;-3.12;118.99
67186;HTU21D;54116;53.518;49.398;2023-04-15T08:04:09;-3.17;118.99
67186;HTU21D;54116;53.518;49.398;2023-04-15T08:06:36;-2.74;118.99
67186;HTU21D;54116;53.518;49.398;2023-04-15T08:09:05;-2.80;118.99
67186;HTU21D;54116;53.518;49.398;2023-04-15T08:11:32;-2.44;118.99
67186;HTU21D;54116;53.518;49.398;2023-04-15T08:13:58;-2.34;118.99
67186;HTU21D;54116;53.518;49.398;2023-04-15T08:16:25;-2.50;118.99
67186;HTU21D;54116;53.518;49.398;2023-04-15T08:18:54;-2.10;118.99
67186;HTU21D;54116;53.518;49.398;2023-04-15T08:21:21;-2.07;118.99
67186;HTU21D;54116;53.518;49.398;2023-04-15T08:23:50;-2.46;118.99
67186;HTU21D;54116;53.518;49.398;2023-04-15T08:26:17;-2.35;118.99
67186;HTU21D;54116;53.518;49.398;2023-04-15T08:28:45;-2.09;118.99
67186;HTU21D;54116;53.518;49.398;2023-04-15T08:31:12;-1.82;118.99
67186;HTU21D;54116;53.518;49.398;2023-04-15T08:33:39;-2.10;118.99
67186;HTU21D;54116;53.518;49.398;2023-04-15T08:36:06;-2.14;118.99
67186;HTU21D;54116;53.518;49.398;2023-04-15T08:38:33;-1.90;118.99
67186;HTU21D;54116;53.518;49.398;2023-04-15T08:41:08;-2.09;118.99
67186;HTU21D;54116;53.518;49.398;2023-04-15T08:43:45;-2.01;118.99
67186;HTU21D;54116;53.518;49.398;2023-04-15T08:46:14;-2.33;118.99
67186;HTU21D;54116;53.518;49.398;2023-04-15T08:48:41;-1.63;118.99
67186;HTU21D;54116;53.518;49.398;2023-04-15T08:51:08;-1.64;118.99
67186;HTU21D;54116;53.518;49.398;2023-04-15T08:53:34;-1.73;118.99
67186;HTU21D;54116;53.518;49.398;2023-04-15T08:56:03;-1.55;118.99
67186;HTU21D;54116;53.518;49.398;2023-04-15T08:58:32;-1.61;118.99
67186;HTU21D;54116;53.518;49.398;2023-04-15T09:01:00;-1.87;118.99
67186;HTU21D;54116;53.518;49.398;2023-04-15T09:03:27;-1.69;118.99
67186;HTU21D;54116;53.518;49.398;2023-04-15T09:05:53;-1.19;118.99
67186;HTU21D;54116;53.518;49.398;2023-04-15T09:08:20;-0.96;118.99
67186;HTU21D;54116;53.518;49.398;2023-04-15T09:10:47;-1.54;118.99
67186;HTU21D;54116;53.518;49.398;2023-04-15T09:13:13;-1.61;118.99
67186;HTU21D;54116;53.518;49.398;2023-04-15T09:15:40;-1.38;118.99
67186;HTU21D;54116;53.518;49.398;2023-04-15T09:18:06;-1.25;118.99
67186;HTU21D;54116;53.518;49.398;2023-04-15T09:20:41;-1.40;118.99
67186;HTU21D;54116;53.518;49.398;2023-04-15T09:23:12;-1.23;118.99
67186;HTU21D;54116;53.518;49.398;2023-04-15T09:25:39;-0.66;118.99
67186;HTU21D;54116;53.518;49.398;2023-04-15T09:28:09;-0.99;118.99
67186;HTU21D;54116;53.518;49.398;2023-04-15T09:30:37;-1.23;118.99
67186;HTU21D;54116;53.518;49.398;2023-04-15T09:33:03;-0.87;118.99
67186;HTU21D;54116;53.518;49.398;2023-04-15T09:35:33;-1.17;118.99
67186;HTU21D;54116;53.518;49.398;2023-04-15T09:38:06;-0.90;118.99
67186;HTU21D;54116;53.518;49.398;2023-04-15T09:40:39;-0.79;118.99
67186;HTU21D;54116;53.518;49.398;2023-04-15T09:43:07;-1.28;118.99
67186;HTU21D;54116;53.518;49.398;2023-04-15T09:45:34;-1.14;118.99
67186;HTU21D;54116;53.518;49.398;2023-04-15T09:48:22;-1.00;118.99
67186;HTU21D;54116;53.518;49.398;2023-04-15T09:50:50;-0.68;118.99
67186;HTU21D;54116;53.518;49.398;2023-04-15T09:53:20;-1.52;118.99
67186;HTU21D;54116;53.518;49.398;2023-04-15T09:55:52;-1.32;118.99
67186;HTU21D;54116;53.518;49.398;2023-04-15T09:58:22;-1.03;118.99
67186;HTU21D;54116;53.518;49.398;2023-04-15T10:00:49;-1.13;118.99
67186;HTU21D;54116;53.518;49.398;2023-04-15T10:03:19;-0.91;118.99
67186;HTU21D;54116;53.518;49.398;2023-04-15T10:05:51;-1.03;118.99
67186;HTU21D;54116;53.518;49.398;2023-04-15T10:08:21;-0.83;118.99
67186;HTU21D;54116;53.518;49.398;2023-04-15T10:10:48;-0.81;118.99
67186;HTU21D;54116;53.518;49.398;2023-04-15T10:13:19;-0.54;118.99
67186;HTU21D;54116;53.518;49.398;2023-04-15T10:15:51;-0.95;118.99
67186;HTU21D;54116;53.518;49.398;2023-04-15T10:18:25;-0.96;118.99
67186;HTU21D;54116;53.518;49.398;2023-04-15T10:20:52;-0.82;118.99
67186;HTU21D;54116;53.518;49.398;2023-04-15T10:23:19;-0.93;118.99
67186;HTU21D;54116;53.518;49.398;2023-04-15T10:25:48;-0.82;118.99
67186;HTU21D;54116;53.518;49.398;2023-04-15T10:28:15;-1.12;118.99
67186;HTU21D;54116;53.518;49.398;2023-04-15T10:30:43;-0.69;118.99
67186;HTU21D;54116;53.518;49.398;2023-04-15T10:33:10;-0.53;118.99
67186;HTU21D;54116;53.518;49.398;2023-04-15T10:35:36;-0.69;118.99
67186;HTU21D;54116;53.518;49.398;2023-04-15T10:38:33;-1.03;118.99
67186;HTU21D;54116;53.518;49.398;2023-04-15T10:44:09;-0.66;118.99
67186;HTU21D;54116;53.518;49.398;2023-04-15T10:46:45;-0.82;118.99
67186;HTU21D;54116;53.518;49.398;2023-04-15T10:49:14;-0.53;118.99
67186;HTU21D;54116;53.518;49.398;2023-04-15T10:51:51;-0.68;118.99
67186;HTU21D;54116;53.518;49.398;2023-04-15T10:56:52;-0.69;118.99
67186;HTU21D;54116;53.518;49.398;2023-04-15T10:59:36;-0.66;118.99
67186;HTU21D;54116;53.518;49.398;2023-04-15T11:02:04;-0.61;118.99
67186;HTU21D;54116;53.518;49.398;2023-04-15T11:04:54;-0.67;118.99
67186;HTU21D;54116;53.518;49.398;2023-04-15T11:12:39;-0.24;118.99
67186;HTU21D;54116;53.518;49.398;2023-04-15T11:15:30;-0.36;118.99
67186;HTU21D;54116;53.518;49.398;2023-04-15T11:17:59;-0.53;118.99
67186;HTU21D;54116;53.518;49.398;2023-04-15T11:20:34;-0.62;118.99
67186;HTU21D;54116;53.518;49.398;2023-04-15T11:23:00;-0.11;118.99
67186;HTU21D;54116;53.518;49.398;2023-04-15T11:25:29;-0.29;118.99
67186;HTU21D;54116;53.518;49.398;2023-04-15T11:27:56;-0.61;118.99
67186;HTU21D;54116;53.518;49.398;2023-04-15T11:30:24;-0.53;118.99
67186;HTU21D;54116;53.518;49.398;2023-04-15T11:32:53;-0.37;118.99
67186;HTU21D;54116;53.518;49.398;2023-04-15T11:35:20;0.17;118.99
67186;HTU21D;54116;53.518;49.398;2023-04-15T11:37:48;0.05;118.99
67186;HTU21D;54116;53.518;49.398;2023-04-15T11:40:27;0.36;118.99
67186;HTU21D;54116;53.518;49.398;2023-04-15T11:43:04;0.21;118.99
67186;HTU21D;54116;53.518;49.398;2023-04-15T11:45:31;0.20;118.99
67186;HTU21D;54116;53.518;49.398;2023-04-15T11:48:27;-0.17;118.99
67186;HTU21D;54116;53.518;49.398;2023-04-15T11:51:04;0.07;118.99
67186;HTU21D;54116;53.518;49.398;2023-04-15T11:53:47;0.05;118.99
67186;HTU21D;54116;53.518;49.398;2023-04-15T11:56:24;0.16;118.99
67186;HTU21D;54116;53.518;49.398;2023-04-15T11:58:52;0.27;118.99
67186;HTU21D;54116;53.518;49.398;2023-04-15T12:01:19;-0.07;118.99
67186;HTU21D;54116;53.518;49.398;2023-04-15T12:03:46;-0.14;118.99
67186;HTU21D;54116;53.518;49.398;2023-04-15T12:06:18;-0.08;118.99
67186;HTU21D;54116;53.518;49.398;2023-04-15T12:13:57;0.12;118.99
67186;HTU21D;54116;53.518;49.398;2023-04-15T12:16:27;0.21;118.99
67186;HTU21D;54116;53.518;49.398;2023-04-15T12:18:55;0.15;118.99
67186;HTU21D;54116;53.518;49.398;2023-04-15T12:21:23;0.07;118.99
67186;HTU21D;54116;53.518;49.398;2023-04-15T12:23:54;0.09;118.99
67186;HTU21D;54116;53.518;49.398;2023-04-15T12:26:30;0.02;118.99
67186;HTU21D;54116;53.518;49.398;2023-04-15T12:29:05;0.18;118.99
67186;HTU21D;54116;53.518;49.398;2023-04-15T12:31:34;0.03;118.99
67186;HTU21D;54116;53.518;49.398;2023-04-15T12:34:02;0.46;118.99
67186;HTU21D;54116;53.518;49.398;2023-04-15T12:36:30;0.23;118.99
67186;HTU21D;54116;53.518;49.398;2023-04-15T12:39:03;0.48;118.99
67186;HTU21D;54116;53.518;49.398;2023-04-15T12:41:33;0.31;118.99
67186;HTU21D;54116;53.518;49.398;2023-04-15T12:43:59;0.10;118.99
67186;HTU21D;54116;53.518;49.398;2023-04-15T12:46:26;0.24;118.99
67186;HTU21D;54116;53.518;49.398;2023-04-15T12:48:52;0.25;118.99
67186;HTU21D;54116;53.518;49.398;2023-04-15T12:51:19;0.33;118.99
67186;HTU21D;54116;53.518;49.398;2023-04-15T12:53:49;0.36;118.99
67186;HTU21D;54116;53.518;49.398;2023-04-15T12:56:15;-0.00;118.99
67186;HTU21D;54116;53.518;49.398;2023-04-15T12:58:42;0.37;118.99
67186;HTU21D;54116;53.518;49.398;2023-04-15T13:01:09;0.30;118.99
67186;HTU21D;54116;53.518;49.398;2023-04-15T13:03:36;-0.09;118.99
67186;HTU21D;54116;53.518;49.398;2023-04-15T13:06:02;0.19;118.99
67186;HTU21D;54116;53.518;49.398;2023-04-15T13:08:30;-0.05;118.99
67186;HTU21D;54116;53.518;49.398;2023-04-15T13:10:57;0.50;118.99
67186;HTU21D;54116;53.518;49.398;2023-04-15T13:13:23;0.09;118.99
67186;HTU21D;54116;53.518;49.398;2023-04-15T13:15:49;0.21;118.99
67186;HTU21D;54116;53.518;49.398;2023-04-15T13:18:16;0.03;118.99
67186;HTU21D;54116;53.518;49.398;2023-04-15T13:20:42;0.40;118.99
67186;HTU21D;54116;53.518;49.398;2023-04-15T13:23:09;-0.08;118.99
67186;HTU21D;54116;53.518;49.398;2023-04-15T13:25:35;0.31;118.99
67186;HTU21D;54116;53.518;49.398;2023-04-15T13:28:01;0.17;118.99
67186;HTU21D;54116;53.518;49.398;2023-04-15T13:30:28;0.29;118.99
67186;HTU21D;54116;53.518;49.398;2023-04-15T13:32:54;0.48;118.99
67186;HTU21D;54116;53.518;49.398;2023-04-15T13:35:20;0.36;118.99
67186;HTU21D;54116;53.518;49.398;2023-04-15T13:37:47;0.21;118.99
67186;HTU21D;54116;53.518;49.398;2023-04-15T13:40:13;0.29;118.99
67186;HTU21D;54116;53.518;49.398;2023-04-15T13:42:41;0.15;118.99
67186;HTU21D;54116;53.518;49.398;2023-04-15T13:45:09;-0.16;118.99
67186;HTU21D;54116;53.518;49.398;2023-04-15T13:47:35;-0.29;118.99
67186;HTU21D;54116;53.518;49.398;2023-04-15T13:50:02;-0.14;118.99
67186;HTU21D;54116;53.518;49.398;2023-04-15T13:52:28;-0.21;118.99
67186;HTU21D;54116;53.518;49.398;2023-04-15T13:54:54;-0.00;118.99
67186;HTU21D;54116;53.518;49.398;2023-04-15T13:57:20;-0.02;118.99
67186;HTU21D;54116;53.518;49.398;2023-04-15T13:59:50;-0.07;118.99
67186;HTU21D;54116;53.518;49.398;2023-04-15T14:02:16;-0.16;118.99
67186;HTU21D;54116;53.518;49.398;2023-04-15T14:04:42;-0.82;118.99
67186;HTU21D;54116;53.518;49.398;2023-04-15T14:07:09;-0.36;118.99
67186;HTU21D;54116;53.518;49.398;2023-04-15T14:09:35;-0.26;118.99
67186;HTU21D;54116;53.518;49.398;2023-04-15T14:12:02;-0.27;118.99
67186;HTU21D;54116;53.518;49.398;2023-04-15T14:14:28;-0.32;118.99
67186;HTU21D;54116;53.518;49.398;2023-04-15T14:16:55;-0.80;118.99
67186;HTU21D;54116;53.518;49.398;2023-04-15T14:19:22;-0.49;118.99
67186;HTU21D;54116;53.518;49.398;2023-04-15T14:21:49;-0.60;118.99
67186;HTU21D;54116;53.518;49.398;2023-04-15T14:24:15;-0.62;118.99
67186;HTU21D;54116;53.518;49.398;2023-04-15T14:26:42;-0.88;118.99
67186;HTU21D;54116;53.518;49.398;2023-04-15T14:29:09;-0.84;118.99
67186;HTU21D;54116;53.518;49.398;2023-04-15T14:31:36;-0.86;118.99
67186;HTU21D;54116;53.518;49.398;2023-04-15T14:34:03;-0.87;118.99
67186;HTU21D;54116;53.518;49.398;2023-04-15T14:36:29;-0.77;118.99
67186;HTU21D;54116;53.518;49.398;2023-04-15T14:38:57;-0.85;118.99
67186;HTU21D;54116;53.518;49.398;2023-04-15T14:41:23;-0.77;118.99
67186;HTU21D;54116;53.518;49.398;2023-04-15T14:43:49;-1.10;118.99
67186;HTU21D;54116;53.518;49.398;2023-04-15T14:46:16;-0.85;118.99
67186;HTU21D;54116;53.518;49.398;2023-04-15T14:48:42;-1.23;118.99
67186;HTU21D;54116;53.518;49.398;2023-04-15T14:51:08;-1.13;118.99
67186;HTU21D;54116;53.518;49.398;2023-04-15T14:53:35;-1.26;118.99
67186;HTU21D;54116;53.518;49.398;2023-04-15T14:56:01;-1.05;118.99
67186;HTU21D;54116;53.518;49.398;2023-04-15T15:01:12;-1.19;118.99
67186;HTU21D;54116;53.518;49.398;2023-04-15T15:03:44;-1.44;118.99
67186;HTU21D;54116;53.518;49.398;2023-04-15T15:06:28;-1.50;118.99
67186;HTU21D;54116;53.518;49.398;2023-04-15T15:08:54;-1.45;118.99
67186;HTU21D;54116;53.518;49.398;2023-04-15T15:11:21;-1.62;118.99